Time,TemperatureF,DewpointF,PressureIn,WindDirection,WindDirectionDegrees,WindSpeedMPH,WindSpeedGustMPH,Humidity,HourlyPrecipIn,Conditions,Clouds,dailyrainin,SoftwareType,DateUTC
2013-04-17 00:03:00,59.0,30.0,29.91,WNW,292,4.0,4.0,33,0.00,,SKC,0.00,VWS V14.01,2013-04-17 07:03:00,
2013-04-17 00:08:00,60.0,30.8,29.91,West,270,2.0,3.0,33,0.00,,SKC,0.00,VWS V14.01,2013-04-17 07:08:00,
2013-04-17 00:13:00,60.0,30.1,29.91,WSW,248,0.0,1.0,32,0.00,,SKC,0.00,VWS V14.01,2013-04-17 07:13:00,
2013-04-17 00:18:00,60.0,30.1,29.91,WSW,248,0.0,0.0,32,0.00,,SKC,0.00,VWS V14.01,2013-04-17 07:18:00,
2013-04-17 00:23:00,60.0,29.3,29.91,SSW,202,0.0,1.0,31,0.00,,SKC,0.00,VWS V14.01,2013-04-17 07:23:00,
2013-04-17 00:28:00,60.0,30.1,29.91,SSE,158,0.0,0.0,32,0.00,,SKC,0.00,VWS V14.01,2013-04-17 07:28:00,
2013-04-17 00:33:00,59.0,30.0,29.91,SE,135,0.0,0.0,33,0.00,,SKC,0.00,VWS V14.01,2013-04-17 07:33:00,
2013-04-17 00:38:00,59.0,30.0,29.91,ENE,68,0.0,0.0,33,0.00,,SKC,0.00,VWS V14.01,2013-04-17 07:38:00,
2013-04-17 00:43:00,59.0,30.7,29.91,ENE,68,0.0,0.0,34,0.00,,SKC,0.00,VWS V14.01,2013-04-17 07:43:00,
2013-04-17 00:48:00,59.0,30.7,29.90,ENE,68,0.0,0.0,34,0.00,,SKC,0.00,VWS V14.01,2013-04-17 07:48:00,
2013-04-17 00:53:00,58.0,29.8,29.90,ENE,68,0.0,0.0,34,0.00,,SKC,0.00,VWS V14.01,2013-04-17 07:53:00,
2013-04-17 00:58:00,58.0,29.8,29.90,NNE,22,0.0,0.0,34,0.00,,SKC,0.00,VWS V14.01,2013-04-17 07:58:00,
2013-04-17 01:03:00,58.0,29.1,29.90,WNW,292,0.0,0.0,33,0.00,,SKC,0.00,VWS V14.01,2013-04-17 08:03:00,
2013-04-17 01:08:00,58.0,29.8,29.90,NW,315,0.0,0.0,34,0.00,,SKC,0.00,VWS V14.01,2013-04-17 08:08:00,
2013-04-17 01:13:00,58.0,29.8,29.89,NNE,22,1.0,1.0,34,0.00,,SKC,0.00,VWS V14.01,2013-04-17 08:13:00,
2013-04-17 01:18:00,58.0,29.8,29.90,WNW,292,0.0,0.0,34,0.00,,SKC,0.00,VWS V14.01,2013-04-17 08:18:00,
2013-04-17 01:23:00,58.0,30.5,29.89,North,0,0.0,0.0,35,0.00,,SKC,0.00,VWS V14.01,2013-04-17 08:23:00,
2013-04-17 01:28:00,57.0,29.6,29.89,NNW,338,0.0,0.0,35,0.00,,SKC,0.00,VWS V14.01,2013-04-17 08:28:00,
2013-04-17 01:33:00,57.0,29.6,29.89,NW,315,0.0,0.0,35,0.00,,SKC,0.00,VWS V14.01,2013-04-17 08:33:00,
2013-04-17 01:38:00,57.0,30.3,29.88,NW,315,0.0,0.0,36,0.00,,SKC,0.00,VWS V14.01,2013-04-17 08:38:00,
2013-04-17 01:43:00,57.0,30.3,29.88,NW,315,0.0,0.0,36,0.00,,SKC,0.00,VWS V14.01,2013-04-17 08:43:00,
2013-04-17 01:48:00,57.0,30.3,29.88,NW,315,0.0,0.0,36,0.00,,SKC,0.00,VWS V14.01,2013-04-17 08:48:00,
2013-04-17 01:53:00,57.0,30.3,29.88,West,270,4.0,4.0,36,0.00,,SKC,0.00,VWS V14.01,2013-04-17 08:53:00,
2013-04-17 01:58:00,57.0,30.3,29.87,WNW,292,3.0,3.0,36,0.00,,SKC,0.00,VWS V14.01,2013-04-17 08:58:00,
2013-04-17 02:03:00,57.0,30.3,29.87,NW,315,3.0,3.0,36,0.00,,SKC,0.00,VWS V14.01,2013-04-17 09:03:00,
2013-04-17 02:08:00,57.0,30.3,29.87,WNW,292,2.0,3.0,36,0.00,,SKC,0.00,VWS V14.01,2013-04-17 09:08:00,
2013-04-17 02:13:00,57.0,31.0,29.87,WNW,292,4.0,4.0,37,0.00,,SKC,0.00,VWS V14.01,2013-04-17 09:13:00,
2013-04-17 02:18:00,57.0,31.0,29.87,WNW,292,6.0,6.0,37,0.00,,SKC,0.00,VWS V14.01,2013-04-17 09:18:00,
2013-04-17 02:23:00,56.0,30.1,29.87,WSW,248,6.0,6.0,37,0.00,,SKC,0.00,VWS V14.01,2013-04-17 09:23:00,
2013-04-17 02:28:00,57.0,31.0,29.87,WNW,292,3.0,4.0,37,0.00,,SKC,0.00,VWS V14.01,2013-04-17 09:28:00,
2013-04-17 02:33:00,57.0,31.0,29.87,WSW,248,4.0,4.0,37,0.00,,SKC,0.00,VWS V14.01,2013-04-17 09:33:00,
2013-04-17 02:38:00,56.0,30.1,29.87,NW,315,4.0,6.0,37,0.00,,SKC,0.00,VWS V14.01,2013-04-17 09:38:00,
2013-04-17 02:43:00,57.0,31.0,29.87,WNW,292,5.0,5.0,37,0.00,,SKC,0.00,VWS V14.01,2013-04-17 09:43:00,
2013-04-17 02:48:00,56.0,30.1,29.87,WNW,292,4.0,5.0,37,0.00,,SKC,0.00,VWS V14.01,2013-04-17 09:48:00,
2013-04-17 02:53:00,56.0,30.8,29.87,WSW,248,1.0,3.0,38,0.00,,SKC,0.00,VWS V14.01,2013-04-17 09:53:00,
2013-04-17 02:58:00,56.0,30.8,29.87,West,270,2.0,4.0,38,0.00,,SKC,0.00,VWS V14.01,2013-04-17 09:58:00,
2013-04-17 03:03:00,56.0,30.8,29.87,WNW,292,3.0,3.0,38,0.00,,SKC,0.00,VWS V14.01,2013-04-17 10:03:00,
2013-04-17 03:08:00,56.0,30.8,29.87,West,270,5.0,5.0,38,0.00,,SKC,0.00,VWS V14.01,2013-04-17 10:08:00,
2013-04-17 03:13:00,56.0,30.8,29.87,West,270,3.0,3.0,38,0.00,,SKC,0.00,VWS V14.01,2013-04-17 10:13:00,
2013-04-17 03:18:00,56.0,30.8,29.86,WNW,292,4.0,4.0,38,0.00,,SKC,0.00,VWS V14.01,2013-04-17 10:18:00,
2013-04-17 03:23:00,56.0,31.4,29.86,WNW,292,3.0,5.0,39,0.00,,SKC,0.00,VWS V14.01,2013-04-17 10:23:00,
2013-04-17 03:28:00,56.0,31.4,29.86,WNW,292,0.0,0.0,39,0.00,,SKC,0.00,VWS V14.01,2013-04-17 10:28:00,
2013-04-17 03:34:00,56.0,31.4,29.86,WNW,292,0.0,0.0,39,0.00,,SKC,0.00,VWS V14.01,2013-04-17 10:34:00,
2013-04-17 03:39:00,55.0,31.1,29.86,WNW,292,0.0,0.0,40,0.00,,SKC,0.00,VWS V14.01,2013-04-17 10:39:00,
2013-04-17 03:44:00,55.0,31.1,29.86,West,270,3.0,3.0,40,0.00,,SKC,0.00,VWS V14.01,2013-04-17 10:44:00,
2013-04-17 03:49:00,55.0,31.1,29.86,WSW,248,3.0,4.0,40,0.00,,SKC,0.00,VWS V14.01,2013-04-17 10:49:00,
2013-04-17 03:54:00,55.0,31.1,29.86,WNW,292,2.0,3.0,40,0.00,,SKC,0.00,VWS V14.01,2013-04-17 10:54:00,
2013-04-17 03:59:00,55.0,31.1,29.86,West,270,4.0,4.0,40,0.00,,SKC,0.00,VWS V14.01,2013-04-17 10:59:00,
2013-04-17 04:04:00,55.0,31.1,29.86,WNW,292,5.0,5.0,40,0.00,,SKC,0.00,VWS V14.01,2013-04-17 11:04:00,
2013-04-17 04:10:00,55.0,31.8,29.87,WNW,292,5.0,5.0,41,0.00,,SKC,0.00,VWS V14.01,2013-04-17 11:10:00,
2013-04-17 04:15:00,56.0,33.2,29.87,West,270,6.0,6.0,42,0.00,,SKC,0.00,VWS V14.01,2013-04-17 11:15:00,
2013-04-17 04:20:00,56.0,33.8,29.87,WNW,292,6.0,6.0,43,0.00,,SKC,0.00,VWS V14.01,2013-04-17 11:20:00,
2013-04-17 04:25:00,56.0,35.0,29.87,WSW,248,6.0,6.0,45,0.00,,SKC,0.00,VWS V14.01,2013-04-17 11:25:00,
2013-04-17 04:30:00,56.0,36.1,29.87,WSW,248,6.0,6.0,47,0.00,,SKC,0.00,VWS V14.01,2013-04-17 11:30:00,
2013-04-17 04:35:00,56.0,36.6,29.87,WSW,248,5.0,6.0,48,0.00,,SKC,0.00,VWS V14.01,2013-04-17 11:35:00,
2013-04-17 04:40:00,56.0,36.6,29.87,WSW,248,8.0,8.0,48,0.00,,SKC,0.00,VWS V14.01,2013-04-17 11:40:00,
2013-04-17 04:45:00,56.0,36.6,29.87,WSW,248,5.0,6.0,48,0.00,,SKC,0.00,VWS V14.01,2013-04-17 11:45:00,
2013-04-17 04:50:00,56.0,37.1,29.87,WSW,248,8.0,9.0,49,0.00,,SKC,0.00,VWS V14.01,2013-04-17 11:50:00,
2013-04-17 04:55:00,56.0,37.6,29.88,WSW,248,6.0,6.0,50,0.00,,SKC,0.00,VWS V14.01,2013-04-17 11:55:00,
2013-04-17 05:00:00,56.0,37.6,29.88,WSW,248,6.0,6.0,50,0.00,,SKC,0.00,VWS V14.01,2013-04-17 12:00:00,
2013-04-17 05:05:00,56.0,37.6,29.88,SW,225,8.0,8.0,50,0.00,,SKC,0.00,VWS V14.01,2013-04-17 12:05:00,
2013-04-17 05:10:00,56.0,37.6,29.88,SW,225,5.0,6.0,50,0.00,,SKC,0.00,VWS V14.01,2013-04-17 12:10:00,
2013-04-17 05:15:00,56.0,37.1,29.89,SW,225,6.0,8.0,49,0.00,,SKC,0.00,VWS V14.01,2013-04-17 12:15:00,
2013-04-17 05:20:00,56.0,36.1,29.89,WSW,248,10.0,12.0,47,0.00,,SKC,0.00,VWS V14.01,2013-04-17 12:20:00,
2013-04-17 05:25:00,55.0,34.6,29.89,WSW,248,8.0,10.0,46,0.00,,SKC,0.00,VWS V14.01,2013-04-17 12:25:00,
2013-04-17 05:30:00,55.0,34.6,29.89,WSW,248,5.0,6.0,46,0.00,,SKC,0.00,VWS V14.01,2013-04-17 12:30:00,
2013-04-17 05:35:00,55.0,34.1,29.89,West,270,6.0,6.0,45,0.00,,SKC,0.00,VWS V14.01,2013-04-17 12:35:00,
2013-04-17 05:40:00,55.0,34.1,29.89,West,270,6.0,7.0,45,0.00,,SKC,0.00,VWS V14.01,2013-04-17 12:40:00,
2013-04-17 05:45:00,55.0,34.1,29.90,West,270,8.0,8.0,45,0.00,,SKC,0.00,VWS V14.01,2013-04-17 12:45:00,
2013-04-17 05:50:00,54.0,35.8,29.90,WSW,248,6.0,8.0,50,0.00,,SKC,0.00,VWS V14.01,2013-04-17 12:50:00,
2013-04-17 05:55:00,54.0,36.3,29.90,West,270,6.0,9.0,51,0.00,,SKC,0.00,VWS V14.01,2013-04-17 12:55:00,
2013-04-17 06:00:00,54.0,36.8,29.90,SW,225,5.0,5.0,52,0.00,,SKC,0.00,VWS V14.01,2013-04-17 13:00:00,
2013-04-17 06:05:00,54.0,37.3,29.90,SW,225,6.0,6.0,53,0.00,,SKC,0.00,VWS V14.01,2013-04-17 13:05:00,
2013-04-17 06:10:00,54.0,37.3,29.91,West,270,7.0,7.0,53,0.00,,SKC,0.00,VWS V14.01,2013-04-17 13:10:00,
2013-04-17 06:15:00,54.0,37.8,29.91,SW,225,6.0,6.0,54,0.00,,SKC,0.00,VWS V14.01,2013-04-17 13:15:00,
2013-04-17 06:20:00,54.0,37.8,29.91,SW,225,6.0,6.0,54,0.00,,SKC,0.00,VWS V14.01,2013-04-17 13:20:00,
2013-04-17 06:25:00,54.0,37.8,29.91,ESE,112,3.0,3.0,54,0.00,,SKC,0.00,VWS V14.01,2013-04-17 13:25:00,
2013-04-17 06:30:00,54.0,38.2,29.92,SW,225,4.0,5.0,55,0.00,,SKC,0.00,VWS V14.01,2013-04-17 13:30:00,
2013-04-17 06:35:00,55.0,39.6,29.92,South,180,5.0,5.0,56,0.00,,SKC,0.00,VWS V14.01,2013-04-17 13:35:00,
2013-04-17 06:40:00,55.0,40.1,29.92,WSW,248,5.0,7.0,57,0.00,,SKC,0.00,VWS V14.01,2013-04-17 13:40:00,
2013-04-17 06:45:00,54.0,39.6,29.93,SW,225,10.0,10.0,58,0.00,,SKC,0.00,VWS V14.01,2013-04-17 13:45:00,
2013-04-17 06:50:00,55.0,41.0,29.93,SW,225,9.0,11.0,59,0.00,,SKC,0.00,VWS V14.01,2013-04-17 13:50:00,
2013-04-17 06:55:00,55.0,41.4,29.93,WSW,248,8.0,8.0,60,0.00,,SKC,0.00,VWS V14.01,2013-04-17 13:55:00,
2013-04-17 07:00:00,55.0,41.8,29.94,SSW,202,5.0,6.0,61,0.00,,SKC,0.00,VWS V14.01,2013-04-17 14:00:00,
2013-04-17 07:05:00,55.0,42.7,29.94,WSW,248,6.0,7.0,63,0.00,,SKC,0.00,VWS V14.01,2013-04-17 14:05:00,
2013-04-17 07:10:00,55.0,43.1,29.94,WSW,248,8.0,8.0,64,0.00,,SKC,0.00,VWS V14.01,2013-04-17 14:10:00,
2013-04-17 07:15:00,55.0,43.1,29.94,SW,225,6.0,6.0,64,0.00,,SKC,0.00,VWS V14.01,2013-04-17 14:15:00,
2013-04-17 07:20:00,55.0,43.1,29.94,SW,225,9.0,13.0,64,0.00,,SKC,0.00,VWS V14.01,2013-04-17 14:20:00,
2013-04-17 07:25:00,55.0,43.1,29.94,SW,225,8.0,9.0,64,0.00,,SKC,0.00,VWS V14.01,2013-04-17 14:25:00,
2013-04-17 07:30:00,55.0,43.1,29.94,WSW,248,6.0,8.0,64,0.00,,SKC,0.00,VWS V14.01,2013-04-17 14:30:00,
2013-04-17 07:35:00,55.0,43.5,29.95,SW,225,5.0,6.0,65,0.00,,SKC,0.00,VWS V14.01,2013-04-17 14:35:00,
2013-04-17 07:40:00,56.0,44.4,29.94,SW,225,8.0,8.0,65,0.00,,SKC,0.00,VWS V14.01,2013-04-17 14:40:00,
2013-04-17 07:45:00,56.0,44.0,29.95,SSW,202,4.0,4.0,64,0.00,,SKC,0.00,VWS V14.01,2013-04-17 14:45:00,
2013-04-17 07:50:00,56.0,44.0,29.95,SW,225,6.0,8.0,64,0.00,,SKC,0.00,VWS V14.01,2013-04-17 14:50:00,
2013-04-17 07:55:00,56.0,44.0,29.95,West,270,6.0,7.0,64,0.00,,SKC,0.00,VWS V14.01,2013-04-17 14:55:00,
2013-04-17 08:00:00,56.0,44.0,29.96,SSW,202,5.0,7.0,64,0.00,,SKC,0.00,VWS V14.01,2013-04-17 15:00:00,
2013-04-17 08:05:00,56.0,44.0,29.95,SW,225,5.0,6.0,64,0.00,,SKC,0.00,VWS V14.01,2013-04-17 15:05:00,
2013-04-17 08:10:00,55.0,43.5,29.96,WSW,248,11.0,11.0,65,0.00,,SKC,0.00,VWS V14.01,2013-04-17 15:10:00,
2013-04-17 08:15:00,55.0,43.9,29.95,WSW,248,7.0,8.0,66,0.00,,SKC,0.00,VWS V14.01,2013-04-17 15:15:00,
2013-04-17 08:20:00,55.0,43.9,29.96,WSW,248,10.0,11.0,66,0.00,,SKC,0.00,VWS V14.01,2013-04-17 15:20:00,
2013-04-17 08:25:00,55.0,43.9,29.95,SSW,202,6.0,8.0,66,0.00,,SKC,0.00,VWS V14.01,2013-04-17 15:25:00,
2013-04-17 08:30:00,55.0,43.9,29.95,SW,225,14.0,14.0,66,0.00,,SKC,0.00,VWS V14.01,2013-04-17 15:30:00,
2013-04-17 08:35:00,55.0,43.5,29.96,SW,225,10.0,13.0,65,0.00,,SKC,0.00,VWS V14.01,2013-04-17 15:35:00,
2013-04-17 08:40:00,56.0,43.2,29.95,SW,225,16.0,16.0,62,0.00,,SKC,0.00,VWS V14.01,2013-04-17 15:40:00,
2013-04-17 08:45:00,57.0,43.3,29.95,SW,225,12.0,13.0,60,0.00,,SKC,0.00,VWS V14.01,2013-04-17 15:45:00,
2013-04-17 08:50:00,56.0,40.5,29.95,SW,225,12.0,12.0,56,0.00,,SKC,0.00,VWS V14.01,2013-04-17 15:50:00,
2013-04-17 08:55:00,58.0,40.5,29.95,SSE,158,5.0,8.0,52,0.00,,SKC,0.00,VWS V14.01,2013-04-17 15:55:00,
2013-04-17 09:00:00,58.0,40.0,29.95,WSW,248,9.0,10.0,51,0.00,,SKC,0.00,VWS V14.01,2013-04-17 16:00:00,
2013-04-17 09:05:00,58.0,40.0,29.95,West,270,14.0,16.0,51,0.00,,SKC,0.00,VWS V14.01,2013-04-17 16:05:00,
2013-04-17 09:10:00,58.0,39.5,29.95,SSW,202,8.0,10.0,50,0.00,,SKC,0.00,VWS V14.01,2013-04-17 16:10:00,
2013-04-17 09:15:00,59.0,39.9,29.95,SSW,202,10.0,11.0,49,0.00,,SKC,0.00,VWS V14.01,2013-04-17 16:15:00,
2013-04-17 09:20:00,57.0,41.9,29.96,WSW,248,11.0,14.0,57,0.00,,SKC,0.00,VWS V14.01,2013-04-17 16:20:00,
2013-04-17 09:25:00,56.0,41.5,29.96,SW,225,6.0,8.0,58,0.00,,SKC,0.00,VWS V14.01,2013-04-17 16:25:00,
2013-04-17 09:31:00,57.0,41.0,29.96,WSW,248,11.0,11.0,55,0.00,,SKC,0.00,VWS V14.01,2013-04-17 16:31:00,
2013-04-17 09:36:00,56.0,41.0,29.96,SW,225,10.0,12.0,57,0.00,,SKC,0.00,VWS V14.01,2013-04-17 16:36:00,
2013-04-17 09:42:00,56.0,41.9,29.97,SW,225,17.0,17.0,59,0.00,,SKC,0.00,VWS V14.01,2013-04-17 16:42:00,
2013-04-17 09:47:00,57.0,41.9,29.97,WSW,248,11.0,11.0,57,0.00,,SKC,0.00,VWS V14.01,2013-04-17 16:47:00,
2013-04-17 09:52:00,58.0,41.0,29.97,SW,225,8.0,13.0,53,0.00,,SKC,0.00,VWS V14.01,2013-04-17 16:52:00,
2013-04-17 09:58:00,58.0,39.0,29.97,SW,225,11.0,14.0,49,0.00,,SKC,0.00,VWS V14.01,2013-04-17 16:58:00,
2013-04-17 10:03:00,59.0,38.8,29.96,SW,225,9.0,9.0,47,0.00,,SKC,0.00,VWS V14.01,2013-04-17 17:03:00,
2013-04-17 10:08:00,59.0,34.1,29.97,SW,225,10.0,11.0,39,0.00,,SKC,0.00,VWS V14.01,2013-04-17 17:08:00,
2013-04-17 10:13:00,60.0,36.2,29.97,SW,225,9.0,13.0,41,0.00,,SKC,0.00,VWS V14.01,2013-04-17 17:13:00,
2013-04-17 10:18:00,59.0,31.4,29.97,WSW,248,11.0,13.0,35,0.00,,SKC,0.00,VWS V14.01,2013-04-17 17:18:00,
2013-04-17 10:24:00,59.0,34.1,29.97,SW,225,11.0,11.0,39,0.00,,SKC,0.00,VWS V14.01,2013-04-17 17:24:00,
2013-04-17 10:29:00,59.0,32.8,29.97,SW,225,5.0,6.0,37,0.00,,SKC,0.00,VWS V14.01,2013-04-17 17:29:00,
2013-04-17 10:34:00,60.0,30.8,29.98,SW,225,11.0,11.0,33,0.00,,SKC,0.00,VWS V14.01,2013-04-17 17:34:00,
2013-04-17 10:39:00,61.0,31.7,29.98,SSE,158,3.0,5.0,33,0.00,,SKC,0.00,VWS V14.01,2013-04-17 17:39:00,
2013-04-17 10:45:00,62.0,31.8,29.98,SW,225,13.0,14.0,32,0.00,,SKC,0.00,VWS V14.01,2013-04-17 17:45:00,
2013-04-17 10:51:00,60.0,28.5,29.98,West,270,11.0,11.0,30,0.00,,SKC,0.00,VWS V14.01,2013-04-17 17:51:00,
2013-04-17 10:56:00,60.0,29.3,29.98,West,270,8.0,11.0,31,0.00,,SKC,0.00,VWS V14.01,2013-04-17 17:56:00,
2013-04-17 11:02:00,60.0,29.3,29.98,WSW,248,13.0,13.0,31,0.00,,SKC,0.00,VWS V14.01,2013-04-17 18:02:00,
2013-04-17 11:07:00,60.0,30.8,29.98,WSW,248,7.0,11.0,33,0.00,,SKC,0.00,VWS V14.01,2013-04-17 18:07:00,
2013-04-17 11:12:00,60.0,30.1,29.98,WSW,248,10.0,16.0,32,0.00,,SKC,0.00,VWS V14.01,2013-04-17 18:12:00,
2013-04-17 11:18:00,60.0,28.5,29.98,West,270,11.0,11.0,30,0.00,,SKC,0.00,VWS V14.01,2013-04-17 18:18:00,
2013-04-17 11:24:00,60.0,27.7,29.98,WNW,292,10.0,10.0,29,0.00,,SKC,0.00,VWS V14.01,2013-04-17 18:24:00,
2013-04-17 11:30:00,61.0,26.8,29.98,South,180,6.0,8.0,27,0.00,,SKC,0.00,VWS V14.01,2013-04-17 18:30:00,
2013-04-17 11:35:00,61.0,27.7,29.98,WSW,248,3.0,3.0,28,0.00,,SKC,0.00,VWS V14.01,2013-04-17 18:35:00,
2013-04-17 11:40:00,60.0,25.0,29.98,WSW,248,10.0,13.0,26,0.00,,SKC,0.00,VWS V14.01,2013-04-17 18:40:00,
2013-04-17 11:46:00,61.0,25.9,29.99,West,270,13.0,15.0,26,0.00,,SKC,0.00,VWS V14.01,2013-04-17 18:46:00,
2013-04-17 11:52:00,61.0,26.8,29.98,West,270,13.0,18.0,27,0.00,,SKC,0.00,VWS V14.01,2013-04-17 18:52:00,
2013-04-17 11:58:00,62.0,26.8,29.98,SW,225,13.0,13.0,26,0.00,,SKC,0.00,VWS V14.01,2013-04-17 18:58:00,
2013-04-17 12:04:00,61.0,25.9,29.98,SW,225,10.0,10.0,26,0.00,,SKC,0.00,VWS V14.01,2013-04-17 19:04:00,
2013-04-17 12:10:00,62.0,26.8,29.98,WNW,292,14.0,14.0,26,0.00,,SKC,0.00,VWS V14.01,2013-04-17 19:10:00,
2013-04-17 12:15:00,61.0,25.0,29.98,WSW,248,6.0,7.0,25,0.00,,SKC,0.00,VWS V14.01,2013-04-17 19:15:00,
2013-04-17 12:20:00,62.0,26.8,29.98,WSW,248,7.0,9.0,26,0.00,,SKC,0.00,VWS V14.01,2013-04-17 19:20:00,
2013-04-17 12:25:00,62.0,26.8,29.98,SSW,202,8.0,10.0,26,0.00,,SKC,0.00,VWS V14.01,2013-04-17 19:25:00,
2013-04-17 12:30:00,61.0,25.9,29.98,WNW,292,15.0,17.0,26,0.00,,SKC,0.00,VWS V14.01,2013-04-17 19:30:00,
2013-04-17 12:36:00,63.0,26.6,29.98,South,180,8.0,12.0,25,0.00,,SKC,0.00,VWS V14.01,2013-04-17 19:36:00,
2013-04-17 12:41:00,63.0,25.7,29.98,SW,225,11.0,13.0,24,0.00,,SKC,0.00,VWS V14.01,2013-04-17 19:41:00,
2013-04-17 12:47:00,63.0,26.6,29.98,WNW,292,11.0,14.0,25,0.00,,SKC,0.00,VWS V14.01,2013-04-17 19:47:00,
2013-04-17 12:52:00,63.0,27.6,29.99,West,270,6.0,11.0,26,0.00,,SKC,0.00,VWS V14.01,2013-04-17 19:52:00,
2013-04-17 12:57:00,62.0,25.8,29.99,SW,225,6.0,11.0,25,0.00,,SKC,0.00,VWS V14.01,2013-04-17 19:57:00,
2013-04-17 13:03:00,62.0,24.8,29.99,WSW,248,11.0,19.0,24,0.00,,SKC,0.00,VWS V14.01,2013-04-17 20:03:00,
2013-04-17 13:08:00,61.0,24.0,29.99,WNW,292,18.0,18.0,24,0.00,,SKC,0.00,VWS V14.01,2013-04-17 20:08:00,
2013-04-17 13:13:00,61.0,24.0,29.98,WNW,292,13.0,15.0,24,0.00,,SKC,0.00,VWS V14.01,2013-04-17 20:13:00,
2013-04-17 13:18:00,64.0,26.5,29.98,West,270,10.0,11.0,24,0.00,,SKC,0.00,VWS V14.01,2013-04-17 20:18:00,
2013-04-17 13:24:00,62.0,23.8,29.99,West,270,11.0,13.0,23,0.00,,SKC,0.00,VWS V14.01,2013-04-17 20:24:00,
2013-04-17 13:30:00,62.0,24.8,29.99,West,270,16.0,16.0,24,0.00,,SKC,0.00,VWS V14.01,2013-04-17 20:30:00,
2013-04-17 13:37:00,62.0,25.8,29.98,WNW,292,7.0,8.0,25,0.00,,SKC,0.00,VWS V14.01,2013-04-17 20:37:00,
2013-04-17 13:43:00,63.0,25.7,29.98,SW,225,9.0,14.0,24,0.00,,SKC,0.00,VWS V14.01,2013-04-17 20:43:00,
2013-04-17 13:49:00,65.0,25.3,29.98,SW,225,19.0,19.0,22,0.00,,SKC,0.00,VWS V14.01,2013-04-17 20:49:00,
2013-04-17 13:54:00,65.0,26.3,29.98,WSW,248,14.0,14.0,23,0.00,,SKC,0.00,VWS V14.01,2013-04-17 20:54:00,
2013-04-17 13:59:00,63.0,23.6,29.98,SW,225,10.0,13.0,22,0.00,,SKC,0.00,VWS V14.01,2013-04-17 20:59:00,
2013-04-17 14:04:00,65.0,24.1,29.98,West,270,13.0,15.0,21,0.00,,SKC,0.00,VWS V14.01,2013-04-17 21:04:00,
2013-04-17 14:10:00,64.0,24.4,29.98,NNW,338,10.0,15.0,22,0.00,,SKC,0.00,VWS V14.01,2013-04-17 21:10:00,
2013-04-17 14:16:00,64.0,23.3,29.98,WSW,248,13.0,13.0,21,0.00,,SKC,0.00,VWS V14.01,2013-04-17 21:16:00,
2013-04-17 14:22:00,64.0,23.3,29.98,WSW,248,10.0,15.0,21,0.00,,SKC,0.00,VWS V14.01,2013-04-17 21:22:00,
2013-04-17 14:28:00,65.0,25.3,29.98,West,270,8.0,8.0,22,0.00,,SKC,0.00,VWS V14.01,2013-04-17 21:28:00,
2013-04-17 14:33:00,64.0,24.4,29.98,NW,315,6.0,6.0,22,0.00,,SKC,0.00,VWS V14.01,2013-04-17 21:33:00,
2013-04-17 14:38:00,64.0,22.1,29.97,SW,225,10.0,14.0,20,0.00,,SKC,0.00,VWS V14.01,2013-04-17 21:38:00,
2013-04-17 14:43:00,65.0,21.8,29.97,West,270,15.0,21.0,19,0.00,,SKC,0.00,VWS V14.01,2013-04-17 21:43:00,
2013-04-17 14:49:00,64.0,22.1,29.97,WNW,292,18.0,21.0,20,0.00,,SKC,0.00,VWS V14.01,2013-04-17 21:49:00,
2013-04-17 14:55:00,65.0,23.0,29.97,West,270,8.0,12.0,20,0.00,,SKC,0.00,VWS V14.01,2013-04-17 21:55:00,
2013-04-17 15:00:00,64.0,22.1,29.97,WSW,248,5.0,6.0,20,0.00,,SKC,0.00,VWS V14.01,2013-04-17 22:00:00,
2013-04-17 15:05:00,66.0,22.6,29.96,SW,225,2.0,2.0,19,0.00,,SKC,0.00,VWS V14.01,2013-04-17 22:05:00,
2013-04-17 15:10:00,65.0,21.8,29.97,West,270,10.0,16.0,19,0.00,,SKC,0.00,VWS V14.01,2013-04-17 22:10:00,
2013-04-17 15:16:00,65.0,21.8,29.97,NW,315,10.0,11.0,19,0.00,,SKC,0.00,VWS V14.01,2013-04-17 22:16:00,
2013-04-17 15:22:00,65.0,23.0,29.97,WNW,292,5.0,5.0,20,0.00,,SKC,0.00,VWS V14.01,2013-04-17 22:22:00,
2013-04-17 15:28:00,65.0,20.5,29.97,WSW,248,11.0,17.0,18,0.00,,SKC,0.00,VWS V14.01,2013-04-17 22:28:00,
2013-04-17 15:33:00,67.0,22.1,29.97,WSW,248,8.0,9.0,18,0.00,,SKC,0.00,VWS V14.01,2013-04-17 22:33:00,
2013-04-17 15:38:00,65.0,20.5,29.97,WSW,248,11.0,13.0,18,0.00,,SKC,0.00,VWS V14.01,2013-04-17 22:38:00,
2013-04-17 15:43:00,66.0,21.3,29.97,West,270,7.0,8.0,18,0.00,,SKC,0.00,VWS V14.01,2013-04-17 22:43:00,
2013-04-17 15:48:00,65.0,20.5,29.97,NW,315,9.0,9.0,18,0.00,,SKC,0.00,VWS V14.01,2013-04-17 22:48:00,
2013-04-17 15:53:00,66.0,21.3,29.97,NW,315,13.0,17.0,18,0.00,,SKC,0.00,VWS V14.01,2013-04-17 22:53:00,
2013-04-17 15:58:00,66.0,21.3,29.97,SW,225,11.0,11.0,18,0.00,,SKC,0.00,VWS V14.01,2013-04-17 22:58:00,
2013-04-17 16:04:00,66.0,20.0,29.97,West,270,6.0,8.0,17,0.00,,SKC,0.00,VWS V14.01,2013-04-17 23:04:00,
2013-04-17 16:09:00,66.0,18.5,29.97,West,270,10.0,10.0,16,0.00,,SKC,0.00,VWS V14.01,2013-04-17 23:09:00,
2013-04-17 16:14:00,66.0,18.5,29.97,SW,225,6.0,8.0,16,0.00,,SKC,0.00,VWS V14.01,2013-04-17 23:14:00,
2013-04-17 16:19:00,66.0,18.5,29.97,West,270,5.0,7.0,16,0.00,,SKC,0.00,VWS V14.01,2013-04-17 23:19:00,
2013-04-17 16:25:00,66.0,20.0,29.97,SW,225,9.0,11.0,17,0.00,,SKC,0.00,VWS V14.01,2013-04-17 23:25:00,
2013-04-17 16:30:00,65.0,17.8,29.97,West,270,8.0,10.0,16,0.00,,SKC,0.00,VWS V14.01,2013-04-17 23:30:00,
2013-04-17 16:35:00,66.0,20.0,29.97,SW,225,6.0,6.0,17,0.00,,SKC,0.00,VWS V14.01,2013-04-17 23:35:00,
2013-04-17 16:40:00,65.0,19.2,29.97,West,270,9.0,11.0,17,0.00,,SKC,0.00,VWS V14.01,2013-04-17 23:40:00,
2013-04-17 16:46:00,65.0,19.2,29.97,West,270,8.0,8.0,17,0.00,,SKC,0.00,VWS V14.01,2013-04-17 23:46:00,
2013-04-17 16:51:00,65.0,19.2,29.97,WNW,292,8.0,9.0,17,0.00,,SKC,0.00,VWS V14.01,2013-04-17 23:51:00,
2013-04-17 16:57:00,65.0,20.5,29.97,West,270,8.0,8.0,18,0.00,,SKC,0.00,VWS V14.01,2013-04-17 23:57:00,
2013-04-17 17:02:00,65.0,19.2,29.97,West,270,16.0,18.0,17,0.00,,SKC,0.00,VWS V14.01,2013-04-18 00:02:00,
2013-04-17 17:07:00,65.0,20.5,29.97,SW,225,6.0,7.0,18,0.00,,SKC,0.00,VWS V14.01,2013-04-18 00:07:00,
2013-04-17 17:13:00,64.0,18.3,29.97,West,270,9.0,16.0,17,0.00,,SKC,0.00,VWS V14.01,2013-04-18 00:13:00,
2013-04-17 17:19:00,64.0,18.3,29.98,NW,315,7.0,9.0,17,0.00,,SKC,0.00,VWS V14.01,2013-04-18 00:19:00,
2013-04-17 17:24:00,65.0,19.2,29.98,West,270,6.0,6.0,17,0.00,,SKC,0.00,VWS V14.01,2013-04-18 00:24:00,
2013-04-17 17:29:00,65.0,19.2,29.98,West,270,14.0,14.0,17,0.00,,SKC,0.00,VWS V14.01,2013-04-18 00:29:00,
2013-04-17 17:34:00,65.0,19.2,29.98,West,270,10.0,10.0,17,0.00,,SKC,0.00,VWS V14.01,2013-04-18 00:34:00,
2013-04-17 17:39:00,65.0,19.2,29.98,West,270,6.0,6.0,17,0.00,,SKC,0.00,VWS V14.01,2013-04-18 00:39:00,
2013-04-17 17:44:00,64.0,18.3,29.98,WNW,292,11.0,11.0,17,0.00,,SKC,0.00,VWS V14.01,2013-04-18 00:44:00,
2013-04-17 17:49:00,65.0,19.2,29.98,West,270,11.0,11.0,17,0.00,,SKC,0.00,VWS V14.01,2013-04-18 00:49:00,
2013-04-17 17:54:00,64.0,16.9,29.98,WNW,292,12.0,13.0,16,0.00,,SKC,0.00,VWS V14.01,2013-04-18 00:54:00,
2013-04-17 18:00:00,64.0,18.3,29.98,West,270,11.0,13.0,17,0.00,,SKC,0.00,VWS V14.01,2013-04-18 01:00:00,
2013-04-17 18:05:00,63.0,17.5,29.98,WNW,292,8.0,11.0,17,0.00,,SKC,0.00,VWS V14.01,2013-04-18 01:05:00,
2013-04-17 18:10:00,64.0,18.3,29.98,WSW,248,8.0,10.0,17,0.00,,SKC,0.00,VWS V14.01,2013-04-18 01:10:00,
2013-04-17 18:15:00,63.0,17.5,29.98,WNW,292,10.0,14.0,17,0.00,,SKC,0.00,VWS V14.01,2013-04-18 01:15:00,
2013-04-17 18:21:00,63.0,17.5,29.98,NW,315,6.0,7.0,17,0.00,,SKC,0.00,VWS V14.01,2013-04-18 01:21:00,
2013-04-17 18:26:00,63.0,17.5,29.99,West,270,6.0,8.0,17,0.00,,SKC,0.00,VWS V14.01,2013-04-18 01:26:00,
2013-04-17 18:32:00,63.0,16.1,29.99,WSW,248,8.0,10.0,16,0.00,,SKC,0.00,VWS V14.01,2013-04-18 01:32:00,
2013-04-17 18:37:00,62.0,15.3,29.99,WNW,292,6.0,7.0,16,0.00,,SKC,0.00,VWS V14.01,2013-04-18 01:37:00,
2013-04-17 18:42:00,62.0,15.3,29.99,WNW,292,3.0,3.0,16,0.00,,SKC,0.00,VWS V14.01,2013-04-18 01:42:00,
2013-04-17 18:47:00,62.0,15.3,29.99,WNW,292,8.0,8.0,16,0.00,,SKC,0.00,VWS V14.01,2013-04-18 01:47:00,
2013-04-17 18:52:00,61.0,15.9,29.99,NW,315,6.0,8.0,17,0.00,,SKC,0.00,VWS V14.01,2013-04-18 01:52:00,
2013-04-17 18:57:00,61.0,14.5,29.99,West,270,8.0,10.0,16,0.00,,SKC,0.00,VWS V14.01,2013-04-18 01:57:00,
2013-04-17 19:02:00,61.0,14.5,29.99,WNW,292,8.0,9.0,16,0.00,,SKC,0.00,VWS V14.01,2013-04-18 02:02:00,
2013-04-17 19:07:00,61.0,14.5,29.99,WNW,292,9.0,10.0,16,0.00,,SKC,0.00,VWS V14.01,2013-04-18 02:07:00,
2013-04-17 19:13:00,61.0,14.5,29.99,WNW,292,5.0,5.0,16,0.00,,SKC,0.00,VWS V14.01,2013-04-18 02:13:00,
2013-04-17 19:18:00,60.0,13.7,29.99,NW,315,5.0,5.0,16,0.00,,SKC,0.00,VWS V14.01,2013-04-18 02:18:00,
2013-04-17 19:23:00,60.0,13.7,30.00,WNW,292,8.0,8.0,16,0.00,,SKC,0.00,VWS V14.01,2013-04-18 02:23:00,
2013-04-17 19:28:00,60.0,15.1,30.00,WNW,292,6.0,7.0,17,0.00,,SKC,0.00,VWS V14.01,2013-04-18 02:28:00,
2013-04-17 19:33:00,60.0,15.1,30.00,WNW,292,6.0,6.0,17,0.00,,SKC,0.00,VWS V14.01,2013-04-18 02:33:00,
2013-04-17 19:39:00,60.0,15.1,30.01,WNW,292,2.0,3.0,17,0.00,,SKC,0.00,VWS V14.01,2013-04-18 02:39:00,
2013-04-17 19:44:00,59.0,14.3,30.01,WNW,292,3.0,3.0,17,0.00,,SKC,0.00,VWS V14.01,2013-04-18 02:44:00,
2013-04-17 19:49:00,59.0,14.3,30.01,WNW,292,3.0,3.0,17,0.00,,SKC,0.00,VWS V14.01,2013-04-18 02:49:00,
2013-04-17 19:54:00,59.0,14.3,30.01,West,270,3.0,3.0,17,0.00,,SKC,0.00,VWS V14.01,2013-04-18 02:54:00,
2013-04-17 19:59:00,59.0,14.3,30.01,WNW,292,3.0,5.0,17,0.00,,SKC,0.00,VWS V14.01,2013-04-18 02:59:00,
2013-04-17 20:04:00,59.0,14.3,30.01,West,270,2.0,3.0,17,0.00,,SKC,0.00,VWS V14.01,2013-04-18 03:04:00,
2013-04-17 20:09:00,59.0,14.3,30.02,WSW,248,3.0,4.0,17,0.00,,SKC,0.00,VWS V14.01,2013-04-18 03:09:00,
2013-04-17 20:14:00,58.0,13.4,30.02,WNW,292,3.0,3.0,17,0.00,,SKC,0.00,VWS V14.01,2013-04-18 03:14:00,
2013-04-17 20:19:00,58.0,13.4,30.02,NW,315,5.0,5.0,17,0.00,,SKC,0.00,VWS V14.01,2013-04-18 03:19:00,
2013-04-17 20:24:00,58.0,14.8,30.03,West,270,2.0,3.0,18,0.00,,SKC,0.00,VWS V14.01,2013-04-18 03:24:00,
2013-04-17 20:29:00,58.0,14.8,30.03,NW,315,1.0,2.0,18,0.00,,SKC,0.00,VWS V14.01,2013-04-18 03:29:00,
2013-04-17 20:34:00,58.0,14.8,30.03,NW,315,2.0,3.0,18,0.00,,SKC,0.00,VWS V14.01,2013-04-18 03:34:00,
2013-04-17 20:39:00,58.0,14.8,30.03,NNW,338,1.0,2.0,18,0.00,,SKC,0.00,VWS V14.01,2013-04-18 03:39:00,
2013-04-17 20:44:00,57.0,13.9,30.04,WNW,292,5.0,5.0,18,0.00,,SKC,0.00,VWS V14.01,2013-04-18 03:44:00,
2013-04-17 20:49:00,57.0,13.9,30.04,NNW,338,3.0,4.0,18,0.00,,SKC,0.00,VWS V14.01,2013-04-18 03:49:00,
2013-04-17 20:54:00,57.0,13.9,30.04,NNW,338,4.0,5.0,18,0.00,,SKC,0.00,VWS V14.01,2013-04-18 03:54:00,
2013-04-17 20:59:00,57.0,13.9,30.04,WNW,292,3.0,3.0,18,0.00,,SKC,0.00,VWS V14.01,2013-04-18 03:59:00,
2013-04-17 21:01:00,57.0,13.9,30.04,NW,315,3.0,4.0,18,0.00,,SKC,0.00,VWS V14.01,2013-04-18 04:01:00,
2013-04-17 21:02:00,57.0,13.9,30.04,NNW,338,3.0,5.0,18,0.00,,SKC,0.00,VWS V14.01,2013-04-18 04:02:00,
2013-04-17 21:06:00,57.0,15.2,30.04,West,270,3.0,4.0,19,0.00,,SKC,0.00,VWS V14.01,2013-04-18 04:06:00,
2013-04-17 21:09:00,57.0,15.2,30.05,NW,315,5.0,5.0,19,0.00,,SKC,0.00,VWS V14.01,2013-04-18 04:09:00,
2013-04-17 21:12:00,57.0,15.2,30.05,West,270,3.0,3.0,19,0.00,,SKC,0.00,VWS V14.01,2013-04-18 04:12:00,
2013-04-17 21:17:00,57.0,15.2,30.05,WNW,292,3.0,3.0,19,0.00,,SKC,0.00,VWS V14.01,2013-04-18 04:17:00,
2013-04-17 21:22:00,57.0,15.2,30.05,WNW,292,5.0,5.0,19,0.00,,SKC,0.00,VWS V14.01,2013-04-18 04:22:00,
2013-04-17 21:27:00,57.0,15.2,30.05,WNW,292,4.0,4.0,19,0.00,,SKC,0.00,VWS V14.01,2013-04-18 04:27:00,
2013-04-17 21:32:00,57.0,15.2,30.05,WNW,292,4.0,5.0,19,0.00,,SKC,0.00,VWS V14.01,2013-04-18 04:32:00,
2013-04-17 21:37:00,57.0,15.2,30.05,WNW,292,4.0,4.0,19,0.00,,SKC,0.00,VWS V14.01,2013-04-18 04:37:00,
2013-04-17 21:42:00,57.0,15.2,30.05,WNW,292,3.0,3.0,19,0.00,,SKC,0.00,VWS V14.01,2013-04-18 04:42:00,
2013-04-17 21:47:00,57.0,15.2,30.05,NW,315,7.0,8.0,19,0.00,,SKC,0.00,VWS V14.01,2013-04-18 04:47:00,
2013-04-17 21:52:00,57.0,15.2,30.05,NW,315,4.0,5.0,19,0.00,,SKC,0.00,VWS V14.01,2013-04-18 04:52:00,
2013-04-17 21:57:00,57.0,16.4,30.05,WNW,292,5.0,6.0,20,0.00,,SKC,0.00,VWS V14.01,2013-04-18 04:57:00,
2013-04-17 22:02:00,57.0,16.4,30.05,NW,315,5.0,6.0,20,0.00,,SKC,0.00,VWS V14.01,2013-04-18 05:02:00,
2013-04-17 22:07:00,57.0,16.4,30.05,West,270,6.0,8.0,20,0.00,,SKC,0.00,VWS V14.01,2013-04-18 05:07:00,
2013-04-17 22:12:00,57.0,16.4,30.05,WNW,292,8.0,8.0,20,0.00,,SKC,0.00,VWS V14.01,2013-04-18 05:12:00,
2013-04-17 22:17:00,57.0,16.4,30.05,WNW,292,4.0,4.0,20,0.00,,SKC,0.00,VWS V14.01,2013-04-18 05:17:00,
2013-04-17 22:22:00,56.0,15.5,30.05,WNW,292,7.0,8.0,20,0.00,,SKC,0.00,VWS V14.01,2013-04-18 05:22:00,
2013-04-17 22:27:00,56.0,15.5,30.05,WNW,292,4.0,4.0,20,0.00,,SKC,0.00,VWS V14.01,2013-04-18 05:27:00,
2013-04-17 22:32:00,56.0,15.5,30.05,WNW,292,3.0,4.0,20,0.00,,SKC,0.00,VWS V14.01,2013-04-18 05:32:00,
2013-04-17 22:37:00,56.0,15.5,30.05,West,270,5.0,6.0,20,0.00,,SKC,0.00,VWS V14.01,2013-04-18 05:37:00,
2013-04-17 22:42:00,56.0,15.5,30.05,West,270,3.0,5.0,20,0.00,,SKC,0.00,VWS V14.01,2013-04-18 05:42:00,
2013-04-17 22:47:00,56.0,15.5,30.05,West,270,4.0,5.0,20,0.00,,SKC,0.00,VWS V14.01,2013-04-18 05:47:00,
2013-04-17 22:52:00,56.0,15.5,30.05,WNW,292,7.0,9.0,20,0.00,,SKC,0.00,VWS V14.01,2013-04-18 05:52:00,
2013-04-17 22:57:00,56.0,15.5,30.05,West,270,3.0,4.0,20,0.00,,SKC,0.00,VWS V14.01,2013-04-18 05:57:00,
2013-04-17 23:02:00,55.0,14.7,30.05,WNW,292,7.0,7.0,20,0.00,,SKC,0.00,VWS V14.01,2013-04-18 06:02:00,
2013-04-17 23:07:00,55.0,14.7,30.06,NW,315,6.0,7.0,20,0.00,,SKC,0.00,VWS V14.01,2013-04-18 06:07:00,
2013-04-17 23:12:00,56.0,15.5,30.05,WNW,292,5.0,6.0,20,0.00,,SKC,0.00,VWS V14.01,2013-04-18 06:12:00,
2013-04-17 23:17:00,55.0,14.7,30.05,West,270,5.0,6.0,20,0.00,,SKC,0.00,VWS V14.01,2013-04-18 06:17:00,
2013-04-17 23:22:00,55.0,14.7,30.05,West,270,7.0,8.0,20,0.00,,SKC,0.00,VWS V14.01,2013-04-18 06:22:00,
2013-04-17 23:27:00,55.0,15.8,30.05,NW,315,3.0,3.0,21,0.00,,SKC,0.00,VWS V14.01,2013-04-18 06:27:00,
2013-04-17 23:32:00,55.0,15.8,30.05,NNW,338,2.0,3.0,21,0.00,,SKC,0.00,VWS V14.01,2013-04-18 06:32:00,
2013-04-17 23:37:00,55.0,15.8,30.06,NNE,22,0.0,1.0,21,0.00,,SKC,0.00,VWS V14.01,2013-04-18 06:37:00,
2013-04-17 23:42:00,54.0,16.0,30.06,NNE,22,0.0,0.0,22,0.00,,SKC,0.00,VWS V14.01,2013-04-18 06:42:00,
2013-04-17 23:47:00,53.0,15.2,30.06,NNE,22,0.0,0.0,22,0.00,,SKC,0.00,VWS V14.01,2013-04-18 06:47:00,
2013-04-17 23:52:00,53.0,16.2,30.06,North,0,0.0,0.0,23,0.00,,SKC,0.00,VWS V14.01,2013-04-18 06:52:00,
2013-04-17 23:57:00,52.0,15.4,30.06,North,0,0.0,0.0,23,0.00,,SKC,0.00,VWS V14.01,2013-04-18 06:57:00,